This is the latest recevied weather packets stored in our database for station/object KF0JHJ. If no packets are shown the sender has not sent any weather packets the latest 10 day(s).
| Time | Temp. | Humidity | Pressure | Rain* | Wind** | Luminosity | Snow |
|---|---|---|---|---|---|---|---|
| 1777497210 | 12.78° C | 47% | 1014.7 hPa | - | - | 576 W/m² | - |
| 1777496907 | 12.22° C | 48% | 1014.6 hPa | - | - | 127 W/m² | - |
| 1777496604 | 12.22° C | 48% | 1014.6 hPa | - | - | 181 W/m² | - |
| 1777496300 | 11.67° C | 47% | 1014.9 hPa | - | - | 136 W/m² | - |
| 1777495996 | 12.22° C | 49% | 1014.9 hPa | - | - | 163 W/m² | - |
| 1777495692 | 11.67° C | 49% | 1014.9 hPa | - | - | 102 W/m² | - |
| 1777495388 | 11.67° C | 48% | 1014.8 hPa | - | - | 86 W/m² | - |
| 1777495085 | 11.67° C | 48% | 1014.8 hPa | - | - | 111 W/m² | - |
| 1777494782 | 11.67° C | 46% | 1014.9 hPa | - | - | 100 W/m² | - |
| 1777494479 | 12.22° C | 47% | 1015.1 hPa | - | - | 106 W/m² | - |
| 1777494176 | 13.33° C | 46% | 1015 hPa | - | - | 166 W/m² | - |
| 1777493873 | 13.33° C | 45% | 1015 hPa | - | - | 475 W/m² | - |
| 1777493571 | 13.33° C | 46% | 1015.2 hPa | - | - | 258 W/m² | - |
| 1777493269 | 12.78° C | 48% | 1015.2 hPa | - | - | 193 W/m² | - |
| 1777492965 | 13.89° C | 43% | 1015 hPa | - | - | 399 W/m² | - |
| 1777492662 | 14.44° C | 45% | 1015.3 hPa | - | - | 757 W/m² | - |
| 1777492362 | 13.89° C | 50% | 1015.3 hPa | - | - | 674 W/m² | - |
| 1777492059 | 12.22° C | 44% | 1015.6 hPa | - | - | 752 W/m² | - |
| 1777491756 | 12.78° C | 45% | 1015.2 hPa | - | - | 165 W/m² | - |
| 1777491453 | 13.33° C | 48% | 1015.4 hPa | - | - | 712 W/m² | - |
| 1777491150 | 12.78° C | 44% | 1015.3 hPa | - | - | 172 W/m² | - |
| 1777490846 | 12.78° C | 48% | 1015.5 hPa | - | - | 688 W/m² | - |
| 1777490542 | 12.78° C | 45% | 1015.4 hPa | - | - | 695 W/m² | - |
| 1777490239 | 12.78° C | 45% | 1015.7 hPa | - | - | 717 W/m² | - |
| 1777489936 | 12.22° C | 45% | 1015.4 hPa | - | - | 175 W/m² | - |
* Rain since midnight (hover to see other rain measurements)
** Current wind speed in m/s (hover to see current wind gust speed)